sensor_id;sensor_type;location;lat;lon;timestamp;temperature;humidity
21787;DHT22;11055;50.870;4.316;2023-02-22T00:00:14;8.40;99.90
21787;DHT22;11055;50.870;4.316;2023-02-22T00:02:58;8.50;99.90
21787;DHT22;11055;50.870;4.316;2023-02-22T00:05:26;8.60;99.90
21787;DHT22;11055;50.870;4.316;2023-02-22T00:07:52;8.70;99.90
21787;DHT22;11055;50.870;4.316;2023-02-22T00:10:21;8.80;99.90
21787;DHT22;11055;50.870;4.316;2023-02-22T00:12:49;8.90;99.90
21787;DHT22;11055;50.870;4.316;2023-02-22T00:15:18;9.00;99.90
21787;DHT22;11055;50.870;4.316;2023-02-22T00:17:44;8.80;99.90
21787;DHT22;11055;50.870;4.316;2023-02-22T00:20:12;8.80;99.90
21787;DHT22;11055;50.870;4.316;2023-02-22T00:22:43;8.70;99.90
21787;DHT22;11055;50.870;4.316;2023-02-22T00:25:12;8.70;99.90
21787;DHT22;11055;50.870;4.316;2023-02-22T00:27:38;8.70;99.90
21787;DHT22;11055;50.870;4.316;2023-02-22T00:30:05;8.70;99.90
21787;DHT22;11055;50.870;4.316;2023-02-22T00:32:31;8.80;99.90
21787;DHT22;11055;50.870;4.316;2023-02-22T00:34:56;8.80;99.90
21787;DHT22;11055;50.870;4.316;2023-02-22T00:37:22;8.80;99.90
21787;DHT22;11055;50.870;4.316;2023-02-22T00:39:49;8.70;99.90
21787;DHT22;11055;50.870;4.316;2023-02-22T00:42:16;8.60;99.90
21787;DHT22;11055;50.870;4.316;2023-02-22T00:44:42;8.60;99.90
21787;DHT22;11055;50.870;4.316;2023-02-22T00:47:08;8.50;99.90
21787;DHT22;11055;50.870;4.316;2023-02-22T00:49:35;8.40;99.90
21787;DHT22;11055;50.870;4.316;2023-02-22T00:52:01;8.40;99.90
21787;DHT22;11055;50.870;4.316;2023-02-22T00:54:27;8.40;99.90
21787;DHT22;11055;50.870;4.316;2023-02-22T00:56:52;8.30;99.90
21787;DHT22;11055;50.870;4.316;2023-02-22T00:59:18;8.10;99.90
21787;DHT22;11055;50.870;4.316;2023-02-22T01:01:44;7.90;99.90
21787;DHT22;11055;50.870;4.316;2023-02-22T01:04:09;7.80;99.90
21787;DHT22;11055;50.870;4.316;2023-02-22T01:06:35;7.60;99.90
21787;DHT22;11055;50.870;4.316;2023-02-22T01:09:02;7.60;99.90
21787;DHT22;11055;50.870;4.316;2023-02-22T01:11:28;7.70;99.90
21787;DHT22;11055;50.870;4.316;2023-02-22T01:13:54;7.80;99.90
21787;DHT22;11055;50.870;4.316;2023-02-22T01:16:22;7.80;99.90
21787;DHT22;11055;50.870;4.316;2023-02-22T01:18:48;7.80;99.90
21787;DHT22;11055;50.870;4.316;2023-02-22T01:21:13;7.70;99.90
21787;DHT22;11055;50.870;4.316;2023-02-22T01:23:39;7.70;99.90
21787;DHT22;11055;50.870;4.316;2023-02-22T01:26:05;7.70;99.90
21787;DHT22;11055;50.870;4.316;2023-02-22T01:28:31;7.70;99.90
21787;DHT22;11055;50.870;4.316;2023-02-22T01:30:57;7.80;99.90
21787;DHT22;11055;50.870;4.316;2023-02-22T01:33:23;7.80;99.90
21787;DHT22;11055;50.870;4.316;2023-02-22T01:35:48;7.60;99.90
21787;DHT22;11055;50.870;4.316;2023-02-22T01:38:15;7.60;99.90
21787;DHT22;11055;50.870;4.316;2023-02-22T01:40:43;7.60;99.90
21787;DHT22;11055;50.870;4.316;2023-02-22T01:43:30;7.70;99.90
21787;DHT22;11055;50.870;4.316;2023-02-22T01:46:04;7.80;99.90
21787;DHT22;11055;50.870;4.316;2023-02-22T01:48:42;7.60;99.90
21787;DHT22;11055;50.870;4.316;2023-02-22T01:51:15;7.60;99.90
21787;DHT22;11055;50.870;4.316;2023-02-22T01:56:11;7.50;99.90
21787;DHT22;11055;50.870;4.316;2023-02-22T01:58:42;7.50;99.90
21787;DHT22;11055;50.870;4.316;2023-02-22T02:01:10;7.50;99.90
21787;DHT22;11055;50.870;4.316;2023-02-22T02:03:37;7.60;99.90
21787;DHT22;11055;50.870;4.316;2023-02-22T02:06:07;7.50;99.90
21787;DHT22;11055;50.870;4.316;2023-02-22T02:08:47;7.50;99.90
21787;DHT22;11055;50.870;4.316;2023-02-22T02:11:19;7.50;99.90
21787;DHT22;11055;50.870;4.316;2023-02-22T02:13:46;7.40;99.90
21787;DHT22;11055;50.870;4.316;2023-02-22T02:16:11;7.40;99.90
21787;DHT22;11055;50.870;4.316;2023-02-22T02:18:37;7.40;99.90
21787;DHT22;11055;50.870;4.316;2023-02-22T02:24:34;7.30;99.90
21787;DHT22;11055;50.870;4.316;2023-02-22T02:27:10;7.40;99.90
21787;DHT22;11055;50.870;4.316;2023-02-22T02:32:43;7.40;99.90
21787;DHT22;11055;50.870;4.316;2023-02-22T02:43:04;7.30;99.90
21787;DHT22;11055;50.870;4.316;2023-02-22T02:46:24;7.20;99.90
21787;DHT22;11055;50.870;4.316;2023-02-22T02:48:46;7.20;99.90
21787;DHT22;11055;50.870;4.316;2023-02-22T02:51:15;7.20;99.90
21787;DHT22;11055;50.870;4.316;2023-02-22T02:53:46;7.20;99.90
21787;DHT22;11055;50.870;4.316;2023-02-22T02:56:12;7.20;99.90
21787;DHT22;11055;50.870;4.316;2023-02-22T02:58:46;7.20;99.90
21787;DHT22;11055;50.870;4.316;2023-02-22T03:07:09;7.20;99.90
21787;DHT22;11055;50.870;4.316;2023-02-22T03:12:51;7.20;99.90
21787;DHT22;11055;50.870;4.316;2023-02-22T03:18:24;7.10;99.90
21787;DHT22;11055;50.870;4.316;2023-02-22T03:21:19;7.10;99.90
21787;DHT22;11055;50.870;4.316;2023-02-22T03:24:33;7.00;99.90
21787;DHT22;11055;50.870;4.316;2023-02-22T03:26:46;6.80;99.90
21787;DHT22;11055;50.870;4.316;2023-02-22T03:29:15;6.80;99.90
21787;DHT22;11055;50.870;4.316;2023-02-22T03:31:53;6.80;99.90
21787;DHT22;11055;50.870;4.316;2023-02-22T03:34:37;6.80;99.90
21787;DHT22;11055;50.870;4.316;2023-02-22T03:37:19;6.80;99.90
21787;DHT22;11055;50.870;4.316;2023-02-22T03:39:49;6.90;99.90
21787;DHT22;11055;50.870;4.316;2023-02-22T03:42:24;6.70;99.90
21787;DHT22;11055;50.870;4.316;2023-02-22T03:44:52;6.60;99.90
21787;DHT22;11055;50.870;4.316;2023-02-22T03:47:29;6.70;99.90
21787;DHT22;11055;50.870;4.316;2023-02-22T03:50:02;6.80;99.90
21787;DHT22;11055;50.870;4.316;2023-02-22T03:52:34;6.70;99.90
21787;DHT22;11055;50.870;4.316;2023-02-22T03:55:02;6.70;99.90
21787;DHT22;11055;50.870;4.316;2023-02-22T03:57:32;6.70;99.90
21787;DHT22;11055;50.870;4.316;2023-02-22T03:59:59;6.80;99.90
21787;DHT22;11055;50.870;4.316;2023-02-22T04:02:25;6.80;99.90
21787;DHT22;11055;50.870;4.316;2023-02-22T04:04:51;6.80;99.90
21787;DHT22;11055;50.870;4.316;2023-02-22T04:07:20;6.80;99.90
21787;DHT22;11055;50.870;4.316;2023-02-22T04:09:46;6.80;99.90
21787;DHT22;11055;50.870;4.316;2023-02-22T04:12:11;6.80;99.90
21787;DHT22;11055;50.870;4.316;2023-02-22T04:14:37;6.90;99.90
21787;DHT22;11055;50.870;4.316;2023-02-22T04:17:03;6.80;99.90
21787;DHT22;11055;50.870;4.316;2023-02-22T04:19:29;6.80;99.90
21787;DHT22;11055;50.870;4.316;2023-02-22T04:21:54;6.70;99.90
21787;DHT22;11055;50.870;4.316;2023-02-22T04:24:20;6.70;99.90
21787;DHT22;11055;50.870;4.316;2023-02-22T04:26:45;6.80;99.90
21787;DHT22;11055;50.870;4.316;2023-02-22T04:29:11;6.90;99.90
21787;DHT22;11055;50.870;4.316;2023-02-22T04:31:37;7.00;99.90
21787;DHT22;11055;50.870;4.316;2023-02-22T04:34:03;7.00;99.90
21787;DHT22;11055;50.870;4.316;2023-02-22T04:36:29;7.00;99.90
21787;DHT22;11055;50.870;4.316;2023-02-22T04:38:58;7.00;99.90
21787;DHT22;11055;50.870;4.316;2023-02-22T04:41:24;7.00;99.90
21787;DHT22;11055;50.870;4.316;2023-02-22T04:43:50;7.10;99.90
21787;DHT22;11055;50.870;4.316;2023-02-22T04:46:16;7.20;99.90
21787;DHT22;11055;50.870;4.316;2023-02-22T04:48:42;7.30;99.90
21787;DHT22;11055;50.870;4.316;2023-02-22T04:51:08;7.20;99.90
21787;DHT22;11055;50.870;4.316;2023-02-22T04:53:34;7.30;99.90
21787;DHT22;11055;50.870;4.316;2023-02-22T04:56:00;7.30;99.90
21787;DHT22;11055;50.870;4.316;2023-02-22T04:58:26;7.30;99.90
21787;DHT22;11055;50.870;4.316;2023-02-22T05:00:52;7.10;99.90
21787;DHT22;11055;50.870;4.316;2023-02-22T05:03:17;7.00;99.90
21787;DHT22;11055;50.870;4.316;2023-02-22T05:05:43;6.90;99.90
21787;DHT22;11055;50.870;4.316;2023-02-22T05:08:09;6.90;99.90
21787;DHT22;11055;50.870;4.316;2023-02-22T05:10:35;7.00;99.90
21787;DHT22;11055;50.870;4.316;2023-02-22T05:13:00;7.10;99.90
21787;DHT22;11055;50.870;4.316;2023-02-22T05:15:26;7.20;99.90
21787;DHT22;11055;50.870;4.316;2023-02-22T05:17:52;7.30;99.90
21787;DHT22;11055;50.870;4.316;2023-02-22T05:20:28;7.20;99.90
21787;DHT22;11055;50.870;4.316;2023-02-22T05:22:55;7.20;99.90
21787;DHT22;11055;50.870;4.316;2023-02-22T05:25:21;7.20;99.90
21787;DHT22;11055;50.870;4.316;2023-02-22T05:27:55;7.40;99.90
21787;DHT22;11055;50.870;4.316;2023-02-22T05:30:24;7.50;99.90
21787;DHT22;11055;50.870;4.316;2023-02-22T05:32:53;7.50;99.90
21787;DHT22;11055;50.870;4.316;2023-02-22T05:35:20;7.50;99.90
21787;DHT22;11055;50.870;4.316;2023-02-22T05:37:45;7.60;99.90
21787;DHT22;11055;50.870;4.316;2023-02-22T05:40:12;7.80;99.90
21787;DHT22;11055;50.870;4.316;2023-02-22T05:42:42;7.80;99.90
21787;DHT22;11055;50.870;4.316;2023-02-22T05:45:10;7.90;99.90
21787;DHT22;11055;50.870;4.316;2023-02-22T05:47:36;7.90;99.90
21787;DHT22;11055;50.870;4.316;2023-02-22T05:50:02;7.90;99.90
21787;DHT22;11055;50.870;4.316;2023-02-22T05:52:28;7.70;99.90
21787;DHT22;11055;50.870;4.316;2023-02-22T05:54:53;7.60;99.90
21787;DHT22;11055;50.870;4.316;2023-02-22T05:57:19;7.70;99.90
21787;DHT22;11055;50.870;4.316;2023-02-22T05:59:44;7.80;99.90
21787;DHT22;11055;50.870;4.316;2023-02-22T06:02:10;7.80;99.90
21787;DHT22;11055;50.870;4.316;2023-02-22T06:04:36;7.80;99.90
21787;DHT22;11055;50.870;4.316;2023-02-22T06:07:01;7.90;99.90
21787;DHT22;11055;50.870;4.316;2023-02-22T06:09:27;7.90;99.90
21787;DHT22;11055;50.870;4.316;2023-02-22T06:11:53;7.90;99.90
21787;DHT22;11055;50.870;4.316;2023-02-22T06:14:18;7.70;99.90
21787;DHT22;11055;50.870;4.316;2023-02-22T06:16:51;7.60;99.90
21787;DHT22;11055;50.870;4.316;2023-02-22T06:19:17;7.60;99.90
21787;DHT22;11055;50.870;4.316;2023-02-22T06:21:54;7.60;99.90
21787;DHT22;11055;50.870;4.316;2023-02-22T06:24:20;7.70;99.90
21787;DHT22;11055;50.870;4.316;2023-02-22T06:26:53;7.70;99.90
21787;DHT22;11055;50.870;4.316;2023-02-22T06:29:19;7.80;99.90
21787;DHT22;11055;50.870;4.316;2023-02-22T06:31:44;7.80;99.90
21787;DHT22;11055;50.870;4.316;2023-02-22T06:34:10;7.90;99.90
21787;DHT22;11055;50.870;4.316;2023-02-22T06:36:36;7.90;99.90
21787;DHT22;11055;50.870;4.316;2023-02-22T06:39:01;7.90;99.90
21787;DHT22;11055;50.870;4.316;2023-02-22T06:41:27;8.00;99.90
21787;DHT22;11055;50.870;4.316;2023-02-22T06:43:53;8.00;99.90
21787;DHT22;11055;50.870;4.316;2023-02-22T06:46:19;8.00;99.90
21787;DHT22;11055;50.870;4.316;2023-02-22T06:48:45;8.20;99.90
21787;DHT22;11055;50.870;4.316;2023-02-22T06:51:11;8.20;99.90
21787;DHT22;11055;50.870;4.316;2023-02-22T06:53:37;8.30;99.90
21787;DHT22;11055;50.870;4.316;2023-02-22T06:56:03;8.30;99.90
21787;DHT22;11055;50.870;4.316;2023-02-22T06:58:28;8.30;99.90
21787;DHT22;11055;50.870;4.316;2023-02-22T07:00:54;8.30;99.90
21787;DHT22;11055;50.870;4.316;2023-02-22T07:03:20;8.30;99.90
21787;DHT22;11055;50.870;4.316;2023-02-22T07:05:45;8.30;99.90
21787;DHT22;11055;50.870;4.316;2023-02-22T07:08:12;8.30;99.90
21787;DHT22;11055;50.870;4.316;2023-02-22T07:10:38;8.30;99.90
21787;DHT22;11055;50.870;4.316;2023-02-22T07:13:06;8.20;99.90
21787;DHT22;11055;50.870;4.316;2023-02-22T07:15:33;8.30;99.90
21787;DHT22;11055;50.870;4.316;2023-02-22T07:17:59;8.30;99.90
21787;DHT22;11055;50.870;4.316;2023-02-22T07:20:27;8.30;99.90
21787;DHT22;11055;50.870;4.316;2023-02-22T07:22:53;8.00;99.90
21787;DHT22;11055;50.870;4.316;2023-02-22T07:25:19;8.10;99.90
21787;DHT22;11055;50.870;4.316;2023-02-22T07:27:46;8.20;99.90
21787;DHT22;11055;50.870;4.316;2023-02-22T07:30:26;8.40;99.90
21787;DHT22;11055;50.870;4.316;2023-02-22T07:32:55;8.40;99.90
21787;DHT22;11055;50.870;4.316;2023-02-22T07:35:23;8.40;99.90
21787;DHT22;11055;50.870;4.316;2023-02-22T07:37:49;8.60;99.90
21787;DHT22;11055;50.870;4.316;2023-02-22T07:40:16;8.80;99.90
21787;DHT22;11055;50.870;4.316;2023-02-22T07:45:17;9.00;99.90
21787;DHT22;11055;50.870;4.316;2023-02-22T07:47:45;9.10;99.90
21787;DHT22;11055;50.870;4.316;2023-02-22T07:50:13;9.10;99.90
21787;DHT22;11055;50.870;4.316;2023-02-22T07:52:39;9.10;99.90
21787;DHT22;11055;50.870;4.316;2023-02-22T07:55:05;9.00;99.90
21787;DHT22;11055;50.870;4.316;2023-02-22T07:57:33;8.90;99.90
21787;DHT22;11055;50.870;4.316;2023-02-22T07:59:59;8.60;99.90
21787;DHT22;11055;50.870;4.316;2023-02-22T08:02:25;8.40;99.90
21787;DHT22;11055;50.870;4.316;2023-02-22T08:04:50;8.40;99.90
21787;DHT22;11055;50.870;4.316;2023-02-22T08:07:16;8.40;99.90
21787;DHT22;11055;50.870;4.316;2023-02-22T08:09:42;8.30;99.90
21787;DHT22;11055;50.870;4.316;2023-02-22T08:12:07;8.40;99.90
21787;DHT22;11055;50.870;4.316;2023-02-22T08:14:33;8.50;99.90
21787;DHT22;11055;50.870;4.316;2023-02-22T08:16:58;8.40;99.90
21787;DHT22;11055;50.870;4.316;2023-02-22T08:19:24;8.50;99.90
21787;DHT22;11055;50.870;4.316;2023-02-22T08:21:50;8.70;99.90
21787;DHT22;11055;50.870;4.316;2023-02-22T08:24:15;8.70;99.90
21787;DHT22;11055;50.870;4.316;2023-02-22T08:26:45;9.00;99.90
21787;DHT22;11055;50.870;4.316;2023-02-22T08:29:13;9.10;99.90
21787;DHT22;11055;50.870;4.316;2023-02-22T08:31:39;9.20;99.90
21787;DHT22;11055;50.870;4.316;2023-02-22T08:34:05;9.10;99.90
21787;DHT22;11055;50.870;4.316;2023-02-22T08:36:31;9.10;99.90
21787;DHT22;11055;50.870;4.316;2023-02-22T08:38:58;9.30;99.90
21787;DHT22;11055;50.870;4.316;2023-02-22T08:41:24;9.50;99.90
21787;DHT22;11055;50.870;4.316;2023-02-22T08:43:50;9.70;99.90
21787;DHT22;11055;50.870;4.316;2023-02-22T08:46:16;9.80;99.90
21787;DHT22;11055;50.870;4.316;2023-02-22T08:48:50;9.90;99.90
21787;DHT22;11055;50.870;4.316;2023-02-22T08:51:15;9.80;99.90
21787;DHT22;11055;50.870;4.316;2023-02-22T08:53:41;9.70;99.90
21787;DHT22;11055;50.870;4.316;2023-02-22T08:56:07;9.70;99.90
21787;DHT22;11055;50.870;4.316;2023-02-22T08:58:32;9.60;99.90
21787;DHT22;11055;50.870;4.316;2023-02-22T09:00:58;9.60;99.90
21787;DHT22;11055;50.870;4.316;2023-02-22T09:03:24;9.70;99.90
21787;DHT22;11055;50.870;4.316;2023-02-22T09:05:49;9.90;99.90
21787;DHT22;11055;50.870;4.316;2023-02-22T09:08:16;9.80;99.90
21787;DHT22;11055;50.870;4.316;2023-02-22T09:10:42;9.70;99.90
21787;DHT22;11055;50.870;4.316;2023-02-22T09:13:09;9.60;99.90
21787;DHT22;11055;50.870;4.316;2023-02-22T09:15:35;9.60;99.90
21787;DHT22;11055;50.870;4.316;2023-02-22T09:18:03;9.70;99.90
21787;DHT22;11055;50.870;4.316;2023-02-22T09:20:29;9.70;99.90
21787;DHT22;11055;50.870;4.316;2023-02-22T09:22:55;9.90;99.90
21787;DHT22;11055;50.870;4.316;2023-02-22T09:25:21;10.10;99.90
21787;DHT22;11055;50.870;4.316;2023-02-22T09:27:48;10.30;99.90
21787;DHT22;11055;50.870;4.316;2023-02-22T09:30:26;10.40;99.90
21787;DHT22;11055;50.870;4.316;2023-02-22T09:32:58;10.40;99.90
21787;DHT22;11055;50.870;4.316;2023-02-22T09:35:25;10.60;99.90
21787;DHT22;11055;50.870;4.316;2023-02-22T09:37:58;10.50;99.90
21787;DHT22;11055;50.870;4.316;2023-02-22T09:40:27;10.50;99.90
21787;DHT22;11055;50.870;4.316;2023-02-22T09:43:02;10.60;99.90
21787;DHT22;11055;50.870;4.316;2023-02-22T09:48:14;10.70;99.90
21787;DHT22;11055;50.870;4.316;2023-02-22T09:50:42;10.80;99.90
21787;DHT22;11055;50.870;4.316;2023-02-22T09:55:59;10.80;99.90
21787;DHT22;11055;50.870;4.316;2023-02-22T09:58:58;10.80;99.90
21787;DHT22;11055;50.870;4.316;2023-02-22T10:01:32;11.00;99.90
21787;DHT22;11055;50.870;4.316;2023-02-22T10:04:22;11.20;99.90
21787;DHT22;11055;50.870;4.316;2023-02-22T10:07:00;11.30;99.90
21787;DHT22;11055;50.870;4.316;2023-02-22T10:09:30;11.40;99.90
21787;DHT22;11055;50.870;4.316;2023-02-22T10:11:59;11.30;99.90
21787;DHT22;11055;50.870;4.316;2023-02-22T10:23:03;11.60;99.90
21787;DHT22;11055;50.870;4.316;2023-02-22T10:25:36;11.50;99.90
21787;DHT22;11055;50.870;4.316;2023-02-22T10:28:02;11.60;99.90
21787;DHT22;11055;50.870;4.316;2023-02-22T10:30:48;11.70;99.90
21787;DHT22;11055;50.870;4.316;2023-02-22T10:33:26;11.90;99.90
21787;DHT22;11055;50.870;4.316;2023-02-22T10:35:54;11.90;99.90
21787;DHT22;11055;50.870;4.316;2023-02-22T10:38:22;11.70;99.90
21787;DHT22;11055;50.870;4.316;2023-02-22T10:43:47;11.90;99.90
21787;DHT22;11055;50.870;4.316;2023-02-22T10:46:17;12.20;99.90
21787;DHT22;11055;50.870;4.316;2023-02-22T10:48:46;12.30;99.90
21787;DHT22;11055;50.870;4.316;2023-02-22T10:51:13;11.90;99.90
21787;DHT22;11055;50.870;4.316;2023-02-22T10:53:38;11.80;99.90
21787;DHT22;11055;50.870;4.316;2023-02-22T10:56:17;11.50;99.90
21787;DHT22;11055;50.870;4.316;2023-02-22T10:58:57;11.40;99.90
21787;DHT22;11055;50.870;4.316;2023-02-22T11:01:34;11.60;99.90
21787;DHT22;11055;50.870;4.316;2023-02-22T11:04:14;11.40;99.90
21787;DHT22;11055;50.870;4.316;2023-02-22T11:06:45;11.30;99.90
21787;DHT22;11055;50.870;4.316;2023-02-22T11:09:16;11.20;99.90
21787;DHT22;11055;50.870;4.316;2023-02-22T11:11:43;11.30;99.90
21787;DHT22;11055;50.870;4.316;2023-02-22T11:14:11;11.40;99.90
21787;DHT22;11055;50.870;4.316;2023-02-22T11:16:41;11.50;99.90
21787;DHT22;11055;50.870;4.316;2023-02-22T11:19:20;11.60;99.90
21787;DHT22;11055;50.870;4.316;2023-02-22T11:24:54;11.40;99.90
21787;DHT22;11055;50.870;4.316;2023-02-22T11:27:36;11.40;99.90
21787;DHT22;11055;50.870;4.316;2023-02-22T11:38:08;11.40;99.90
21787;DHT22;11055;50.870;4.316;2023-02-22T11:40:34;11.40;99.90
21787;DHT22;11055;50.870;4.316;2023-02-22T11:43:26;11.60;99.90
21787;DHT22;11055;50.870;4.316;2023-02-22T11:48:33;11.70;99.90
21787;DHT22;11055;50.870;4.316;2023-02-22T11:56:21;11.80;99.90
21787;DHT22;11055;50.870;4.316;2023-02-22T12:10:07;12.20;99.90
21787;DHT22;11055;50.870;4.316;2023-02-22T12:15:43;12.40;99.90
21787;DHT22;11055;50.870;4.316;2023-02-22T12:18:33;12.50;99.90
21787;DHT22;11055;50.870;4.316;2023-02-22T12:21:05;12.40;99.90
21787;DHT22;11055;50.870;4.316;2023-02-22T12:23:53;12.20;99.90
21787;DHT22;11055;50.870;4.316;2023-02-22T12:26:33;12.20;99.90
21787;DHT22;11055;50.870;4.316;2023-02-22T12:36:59;12.00;99.90
21787;DHT22;11055;50.870;4.316;2023-02-22T12:41:57;12.40;99.90
21787;DHT22;11055;50.870;4.316;2023-02-22T12:44:32;12.50;99.90
21787;DHT22;11055;50.870;4.316;2023-02-22T12:46:59;12.70;99.90
21787;DHT22;11055;50.870;4.316;2023-02-22T12:49:42;12.70;99.90
21787;DHT22;11055;50.870;4.316;2023-02-22T12:52:33;12.50;99.90
21787;DHT22;11055;50.870;4.316;2023-02-22T12:55:22;12.20;99.90
21787;DHT22;11055;50.870;4.316;2023-02-22T12:58:08;12.30;99.90
21787;DHT22;11055;50.870;4.316;2023-02-22T13:03:34;12.20;99.90
21787;DHT22;11055;50.870;4.316;2023-02-22T13:06:17;12.20;99.90
21787;DHT22;11055;50.870;4.316;2023-02-22T13:14:15;11.80;99.90
21787;DHT22;11055;50.870;4.316;2023-02-22T13:17:00;11.70;99.90
21787;DHT22;11055;50.870;4.316;2023-02-22T13:22:54;11.80;99.90
21787;DHT22;11055;50.870;4.316;2023-02-22T13:25:44;11.80;99.90
21787;DHT22;11055;50.870;4.316;2023-02-22T13:28:23;11.70;99.90
21787;DHT22;11055;50.870;4.316;2023-02-22T13:33:58;11.40;99.90
21787;DHT22;11055;50.870;4.316;2023-02-22T13:36:46;11.40;99.90
21787;DHT22;11055;50.870;4.316;2023-02-22T13:42:12;11.70;99.90
21787;DHT22;11055;50.870;4.316;2023-02-22T13:45:02;11.50;99.90
21787;DHT22;11055;50.870;4.316;2023-02-22T13:53:16;11.30;99.90
21787;DHT22;11055;50.870;4.316;2023-02-22T13:55:47;11.30;99.90
21787;DHT22;11055;50.870;4.316;2023-02-22T13:58:14;11.30;99.90
21787;DHT22;11055;50.870;4.316;2023-02-22T14:11:02;11.40;99.90
21787;DHT22;11055;50.870;4.316;2023-02-22T14:16:29;11.30;99.90
21787;DHT22;11055;50.870;4.316;2023-02-22T14:19:17;11.40;99.90
21787;DHT22;11055;50.870;4.316;2023-02-22T14:22:01;11.50;99.90
21787;DHT22;11055;50.870;4.316;2023-02-22T14:24:44;11.40;99.90
21787;DHT22;11055;50.870;4.316;2023-02-22T14:27:12;11.20;99.90
21787;DHT22;11055;50.870;4.316;2023-02-22T14:29:52;10.90;99.90
21787;DHT22;11055;50.870;4.316;2023-02-22T14:32:18;10.80;99.90
21787;DHT22;11055;50.870;4.316;2023-02-22T14:34:55;10.80;99.90
21787;DHT22;11055;50.870;4.316;2023-02-22T14:37:27;10.90;99.90
21787;DHT22;11055;50.870;4.316;2023-02-22T14:40:06;10.90;99.90
21787;DHT22;11055;50.870;4.316;2023-02-22T14:43:09;10.90;99.90
21787;DHT22;11055;50.870;4.316;2023-02-22T14:45:56;10.90;99.90
21787;DHT22;11055;50.870;4.316;2023-02-22T14:48:34;10.90;99.90
21787;DHT22;11055;50.870;4.316;2023-02-22T14:51:59;11.10;99.90
21787;DHT22;11055;50.870;4.316;2023-02-22T14:57:17;11.10;99.90
21787;DHT22;11055;50.870;4.316;2023-02-22T15:02:55;11.20;99.90
21787;DHT22;11055;50.870;4.316;2023-02-22T15:05:24;11.20;99.90
21787;DHT22;11055;50.870;4.316;2023-02-22T15:08:07;10.90;99.90
21787;DHT22;11055;50.870;4.316;2023-02-22T15:10:40;10.70;99.90
21787;DHT22;11055;50.870;4.316;2023-02-22T15:13:29;10.70;99.90
21787;DHT22;11055;50.870;4.316;2023-02-22T15:16:00;10.90;99.90
21787;DHT22;11055;50.870;4.316;2023-02-22T15:18:33;10.80;99.90
21787;DHT22;11055;50.870;4.316;2023-02-22T15:21:11;10.70;99.90
21787;DHT22;11055;50.870;4.316;2023-02-22T15:23:44;10.50;99.90
21787;DHT22;11055;50.870;4.316;2023-02-22T15:26:18;10.50;99.90
21787;DHT22;11055;50.870;4.316;2023-02-22T15:28:44;10.70;99.90
21787;DHT22;11055;50.870;4.316;2023-02-22T15:31:22;10.70;99.90
21787;DHT22;11055;50.870;4.316;2023-02-22T15:33:50;10.70;99.90
21787;DHT22;11055;50.870;4.316;2023-02-22T15:36:18;10.70;99.90
21787;DHT22;11055;50.870;4.316;2023-02-22T15:38:49;10.80;99.90
21787;DHT22;11055;50.870;4.316;2023-02-22T15:41:35;10.80;99.90
21787;DHT22;11055;50.870;4.316;2023-02-22T15:44:06;10.40;99.90
21787;DHT22;11055;50.870;4.316;2023-02-22T15:46:33;10.20;99.90
21787;DHT22;11055;50.870;4.316;2023-02-22T15:49:22;10.30;99.90
21787;DHT22;11055;50.870;4.316;2023-02-22T15:52:01;10.30;99.90
21787;DHT22;11055;50.870;4.316;2023-02-22T15:54:27;10.50;99.90
21787;DHT22;11055;50.870;4.316;2023-02-22T15:56:53;10.30;99.90
21787;DHT22;11055;50.870;4.316;2023-02-22T15:59:23;10.20;99.90
21787;DHT22;11055;50.870;4.316;2023-02-22T16:01:55;10.20;99.90
21787;DHT22;11055;50.870;4.316;2023-02-22T16:04:24;10.10;99.90
21787;DHT22;11055;50.870;4.316;2023-02-22T16:06:52;10.20;99.90
21787;DHT22;11055;50.870;4.316;2023-02-22T16:09:19;10.20;99.90
21787;DHT22;11055;50.870;4.316;2023-02-22T16:12:09;10.40;99.90
21787;DHT22;11055;50.870;4.316;2023-02-22T16:19:40;10.60;99.90
21787;DHT22;11055;50.870;4.316;2023-02-22T16:22:22;10.40;99.90
21787;DHT22;11055;50.870;4.316;2023-02-22T16:24:47;10.50;99.90
21787;DHT22;11055;50.870;4.316;2023-02-22T16:27:18;10.50;99.90
21787;DHT22;11055;50.870;4.316;2023-02-22T16:30:01;10.40;99.90
21787;DHT22;11055;50.870;4.316;2023-02-22T16:32:26;10.20;99.90
21787;DHT22;11055;50.870;4.316;2023-02-22T16:34:52;10.20;99.90
21787;DHT22;11055;50.870;4.316;2023-02-22T16:37:20;10.10;99.90
21787;DHT22;11055;50.870;4.316;2023-02-22T16:39:48;10.20;99.90
21787;DHT22;11055;50.870;4.316;2023-02-22T16:42:18;10.30;99.90
21787;DHT22;11055;50.870;4.316;2023-02-22T16:44:52;10.40;99.90
21787;DHT22;11055;50.870;4.316;2023-02-22T16:47:18;10.40;99.90
21787;DHT22;11055;50.870;4.316;2023-02-22T16:49:48;10.30;99.90
21787;DHT22;11055;50.870;4.316;2023-02-22T16:52:17;10.20;99.90
21787;DHT22;11055;50.870;4.316;2023-02-22T16:54:44;10.20;99.90
21787;DHT22;11055;50.870;4.316;2023-02-22T16:57:21;10.10;99.90
21787;DHT22;11055;50.870;4.316;2023-02-22T16:59:48;10.00;99.90
21787;DHT22;11055;50.870;4.316;2023-02-22T17:02:17;9.90;99.90
21787;DHT22;11055;50.870;4.316;2023-02-22T17:04:43;9.80;99.90
21787;DHT22;11055;50.870;4.316;2023-02-22T17:07:16;9.80;99.90
21787;DHT22;11055;50.870;4.316;2023-02-22T17:09:42;9.90;99.90
21787;DHT22;11055;50.870;4.316;2023-02-22T17:12:10;9.90;99.90
21787;DHT22;11055;50.870;4.316;2023-02-22T17:14:36;9.90;99.90
21787;DHT22;11055;50.870;4.316;2023-02-22T17:17:02;10.00;99.90
21787;DHT22;11055;50.870;4.316;2023-02-22T17:19:28;10.10;99.90
21787;DHT22;11055;50.870;4.316;2023-02-22T17:21:53;10.20;99.90
21787;DHT22;11055;50.870;4.316;2023-02-22T17:24:22;10.30;99.90
21787;DHT22;11055;50.870;4.316;2023-02-22T17:26:49;10.30;99.90
21787;DHT22;11055;50.870;4.316;2023-02-22T17:29:15;10.20;99.90
21787;DHT22;11055;50.870;4.316;2023-02-22T17:31:42;10.20;99.90
21787;DHT22;11055;50.870;4.316;2023-02-22T17:34:08;10.40;99.90
21787;DHT22;11055;50.870;4.316;2023-02-22T17:36:34;10.40;99.90
21787;DHT22;11055;50.870;4.316;2023-02-22T17:39:04;10.50;99.90
21787;DHT22;11055;50.870;4.316;2023-02-22T17:41:30;10.70;99.90
21787;DHT22;11055;50.870;4.316;2023-02-22T17:43:55;10.60;99.90
21787;DHT22;11055;50.870;4.316;2023-02-22T17:46:23;10.50;99.90
21787;DHT22;11055;50.870;4.316;2023-02-22T17:48:50;10.50;99.90
21787;DHT22;11055;50.870;4.316;2023-02-22T17:51:19;10.40;99.90
21787;DHT22;11055;50.870;4.316;2023-02-22T17:53:45;10.50;99.90
21787;DHT22;11055;50.870;4.316;2023-02-22T17:56:12;10.50;99.90
21787;DHT22;11055;50.870;4.316;2023-02-22T17:58:39;10.50;99.90
21787;DHT22;11055;50.870;4.316;2023-02-22T18:01:05;10.60;99.90
21787;DHT22;11055;50.870;4.316;2023-02-22T18:03:31;10.60;99.90
21787;DHT22;11055;50.870;4.316;2023-02-22T18:05:59;10.70;99.90
21787;DHT22;11055;50.870;4.316;2023-02-22T18:08:27;10.50;99.90
21787;DHT22;11055;50.870;4.316;2023-02-22T18:10:53;10.30;99.90
21787;DHT22;11055;50.870;4.316;2023-02-22T18:13:24;10.20;99.90
21787;DHT22;11055;50.870;4.316;2023-02-22T18:15:50;10.30;99.90
21787;DHT22;11055;50.870;4.316;2023-02-22T18:18:17;10.50;99.90